»·PEaware :: N4A KGCN-KPSP

N4A :: KGCN-KPSP

FLIGHT INFORMATION

Flight Status: Arrived
Operator: Privately registered:
United States
More flights under this callsign
Pilot: Alec D. (17934)
Aircraft: CESSNA 550 CITATION 2/S2/BRAVO
(C550)
More flights by this aircraft type
Origin: KGCN Grand Canyon Natl Park
United States
Destination: KPSP Palm Springs Intl
United States
More flights between these airports :: More routes between these airports
Route: PARKS4 PGS EED SBONO1
File this flight plan on PilotEdge
Remarks:
Altitude:
(Current/Filed)
28,000ft
Speed:
(Current/Filed)
400kts
Departed: 13-Aug-18 08:21 AM
Arrived: 13-Aug-18 09:16 AM
Distance/Time
Traveled:
249nm/0:55
Distance/Time
To Go:
Arrived

Flight Plot

Page will automatically refresh every two minutes.

Flight plan parsing failed; only flown route is shown


Map Options




Map Legend


Flown Route
Filed Route
Departure Airport
Arrival Airport
Navaid (VOR, NDB)
Fix

Horizontal Profiles

Position Reports

Time Latitude Longitude Heading Altitude Ground
Speed
13-Aug-18 07:51 35.953289 -112.142440 130 6612ft 0kts
13-Aug-18 07:52 35.953289 -112.142440 130 6612ft 0kts
13-Aug-18 07:53 35.953289 -112.142440 130 6612ft 0kts
13-Aug-18 07:54 35.953289 -112.142440 130 6612ft 0kts
13-Aug-18 07:55 35.953289 -112.142440 130 6612ft 0kts
13-Aug-18 07:56 35.953289 -112.142440 130 6612ft 0kts
13-Aug-18 07:57 35.953289 -112.142440 130 6612ft 0kts
13-Aug-18 07:58 35.953289 -112.142440 130 6612ft 0kts
13-Aug-18 07:59 35.953289 -112.142440 130 6612ft 0kts
13-Aug-18 08:00 35.953289 -112.142440 130 6612ft 0kts
13-Aug-18 08:01 35.953289 -112.142440 130 6612ft 0kts
13-Aug-18 08:02 35.953289 -112.142440 130 6612ft 0kts
13-Aug-18 08:03 35.953289 -112.142440 130 6612ft 0kts
13-Aug-18 08:04 35.953289 -112.142440 130 6612ft 0kts
13-Aug-18 08:05 35.953289 -112.142440 130 6612ft 0kts
13-Aug-18 08:06 35.953289 -112.142440 130 6612ft 0kts
13-Aug-18 08:07 35.953289 -112.142440 130 6612ft 0kts
13-Aug-18 08:08 35.953289 -112.142440 130 6612ft 0kts
13-Aug-18 08:09 35.953289 -112.142440 130 6612ft 0kts
13-Aug-18 08:15 35.953286 -112.142435 130 6612ft 1kts
13-Aug-18 08:16 35.955415 -112.141445 38 6612ft 20kts
13-Aug-18 08:17 35.958831 -112.137968 39 6612ft 19kts
13-Aug-18 08:18 35.961314 -112.136653 274 6612ft 0kts
13-Aug-18 08:19 35.961314 -112.136660 274 6612ft 0kts
13-Aug-18 08:20 35.961314 -112.136666 274 6612ft 0kts
13-Aug-18 08:21 35.961383 -112.137082 287 6612ft 12kts
13-Aug-18 08:22 35.955987 -112.143138 220 6612ft 88kts
13-Aug-18 08:23 35.929881 -112.171293 223 7613ft 149kts
13-Aug-18 08:24 35.907692 -112.220059 279 9455ft 191kts
13-Aug-18 08:25 35.918725 -112.286579 281 11617ft 205kts
13-Aug-18 08:26 35.912139 -112.358883 251 13353ft 230kts
13-Aug-18 08:27 35.892109 -112.436993 252 15052ft 246kts
13-Aug-18 08:28 35.872490 -112.520086 251 16985ft 247kts
13-Aug-18 08:29 35.852711 -112.603395 251 18700ft 255kts
13-Aug-18 08:30 35.832545 -112.688101 251 20306ft 260kts
13-Aug-18 08:31 35.811916 -112.774458 252 21811ft 265kts
13-Aug-18 08:32 35.790792 -112.862570 253 23157ft 270kts
13-Aug-18 08:33 35.770160 -112.948328 253 24804ft 254kts
13-Aug-18 08:34 35.750015 -113.031762 253 26160ft 245kts
13-Aug-18 08:35 35.730353 -113.112928 253 27109ft 251kts
13-Aug-18 08:36 35.709786 -113.197563 253 27828ft 269kts
13-Aug-18 08:37 35.686577 -113.292747 253 27873ft 313kts
13-Aug-18 08:38 35.659717 -113.402434 253 27851ft 356kts
13-Aug-18 08:39 35.628980 -113.523914 246 27815ft 386kts
13-Aug-18 08:40 35.554161 -113.621488 222 27798ft 402kts
13-Aug-18 08:41 35.469918 -113.714185 221 27774ft 411kts
13-Aug-18 08:42 35.384175 -113.807830 221 27769ft 415kts
13-Aug-18 08:43 35.297542 -113.902098 221 27770ft 416kts
13-Aug-18 08:44 35.211028 -113.995945 221 27769ft 416kts
13-Aug-18 08:45 35.124238 -114.089805 221 27741ft 415kts
13-Aug-18 08:46 35.037661 -114.183158 221 27686ft 416kts
13-Aug-18 08:47 34.951020 -114.276303 221 27638ft 416kts
13-Aug-18 08:48 34.863959 -114.369627 221 27610ft 415kts
13-Aug-18 08:49 34.777232 -114.462403 222 27587ft 415kts
13-Aug-18 08:50 34.702890 -114.569887 231 27583ft 415kts
13-Aug-18 08:51 34.631498 -114.677808 231 27341ft 395kts
13-Aug-18 08:52 34.564317 -114.779022 230 25876ft 380kts
13-Aug-18 08:53 34.497900 -114.878806 230 24374ft 379kts
13-Aug-18 08:54 34.432347 -114.977019 230 23603ft 369kts
13-Aug-18 08:55 34.367526 -115.073862 230 23610ft 369kts
13-Aug-18 08:56 34.303095 -115.169865 230 23498ft 362kts
13-Aug-18 08:57 34.239059 -115.265024 229 21752ft 368kts
13-Aug-18 08:58 34.175824 -115.358749 229 19812ft 347kts
13-Aug-18 08:59 34.116919 -115.445822 228 17808ft 326kts
13-Aug-18 09:00 34.059882 -115.529927 228 15827ft 319kts
13-Aug-18 09:01 34.004654 -115.611182 228 14212ft 309kts
13-Aug-18 09:02 33.950506 -115.690667 228 12716ft 305kts
13-Aug-18 09:03 33.912830 -115.779644 265 11233ft 306kts
13-Aug-18 09:04 33.906855 -115.876617 260 11000ft 277kts
13-Aug-18 09:05 33.861730 -115.949073 222 9356ft 277kts
13-Aug-18 09:06 33.805361 -116.010682 221 7637ft 266kts
13-Aug-18 09:07 33.754923 -116.069454 247 6872ft 234kts
13-Aug-18 09:08 33.760562 -116.139305 281 5385ft 195kts
13-Aug-18 09:09 33.771663 -116.200521 281 3895ft 183kts
13-Aug-18 09:10 33.777081 -116.258773 267 2737ft 159kts
13-Aug-18 09:11 33.772471 -116.310761 263 1970ft 148kts
13-Aug-18 09:12 33.771053 -116.359197 271 2025ft 147kts
13-Aug-18 09:13 33.774546 -116.408525 277 1953ft 139kts
13-Aug-18 09:14 33.782740 -116.451849 291 1423ft 128kts
13-Aug-18 09:15 33.803012 -116.484401 322 862ft 126kts
13-Aug-18 09:16 33.829294 -116.507331 322 480ft 68kts
13-Aug-18 09:17 33.834295 -116.510791 55 480ft 0kts
13-Aug-18 09:18 33.834298 -116.510784 55 480ft 0kts
13-Aug-18 09:19 33.834111 -116.509849 146 480ft 13kts
13-Aug-18 09:20 33.830176 -116.506295 143 480ft 19kts
13-Aug-18 09:21 33.826139 -116.502617 142 480ft 26kts
13-Aug-18 09:22 33.820850 -116.497841 144 480ft 27kts
13-Aug-18 09:23 33.820345 -116.495230 323 480ft 15kts
13-Aug-18 09:24 33.822874 -116.496495 55 480ft 0kts
13-Aug-18 09:25 33.822874 -116.496494 55 480ft 0kts

Navigation Log

Ident Type
Flight plan parsing failed, navigation log unavailable